»·PEaware :: N99157 KEUG-KPDX

N99157 :: KEUG-KPDX

FLIGHT INFORMATION

Flight Status: Arrived
Operator: Privately registered:
United States
More flights under this callsign
Pilot: Anonymous 14396 (14396)
Aircraft: CESSNA 172 SKYHAWK
(C172)
More flights by this aircraft type
Origin: KEUG Mahlon Sweet
United States
Destination: KPDX Portland Intl
United States
More flights between these airports :: More routes between these airports
Route: +CVO V495 UBG
File this flight plan on PilotEdge
Remarks:
Altitude:
(Current/Filed)
6,000ft
Speed:
(Current/Filed)
105kts
Departed: 11-Jul-20 06:52 PM
Arrived: 11-Jul-20 08:02 PM
Distance/Time
Traveled:
92nm/1:10
Distance/Time
To Go:
Arrived

Flight Plot

Page will automatically refresh every two minutes.


Map Options




Map Legend


Flown Route
Filed Route
Departure Airport
Arrival Airport
Navaid (VOR, NDB)
Fix

Horizontal Profiles

Position Reports

Time Latitude Longitude Heading Altitude Ground
Speed
11-Jul-20 18:27 44.115151 -123.215522 1 378ft 0kts
11-Jul-20 18:28 44.115151 -123.215522 1 378ft 0kts
11-Jul-20 18:29 44.115151 -123.215522 1 378ft 0kts
11-Jul-20 18:30 44.115151 -123.215522 1 378ft 0kts
11-Jul-20 18:31 44.115151 -123.215522 1 378ft 0kts
11-Jul-20 18:32 44.115151 -123.215522 1 378ft 0kts
11-Jul-20 18:33 44.115151 -123.215522 1 378ft 0kts
11-Jul-20 18:34 44.115151 -123.215522 1 378ft 0kts
11-Jul-20 18:35 44.115151 -123.215522 1 378ft 0kts
11-Jul-20 18:36 44.115151 -123.215522 1 378ft 0kts
11-Jul-20 18:37 44.115151 -123.215522 1 378ft 0kts
11-Jul-20 18:38 44.115151 -123.215522 1 378ft 0kts
11-Jul-20 18:39 44.115395 -123.215642 319 378ft 2kts
11-Jul-20 18:40 44.115563 -123.216627 273 378ft 4kts
11-Jul-20 18:41 44.118193 -123.216954 2 378ft 9kts
11-Jul-20 18:42 44.120573 -123.216992 357 378ft 7kts
11-Jul-20 18:43 44.122706 -123.217030 0 378ft 7kts
11-Jul-20 18:44 44.124983 -123.217063 0 378ft 8kts
11-Jul-20 18:45 44.127306 -123.217105 359 378ft 8kts
11-Jul-20 18:46 44.129690 -123.217125 357 378ft 8kts
11-Jul-20 18:47 44.132157 -123.217178 358 378ft 9kts
11-Jul-20 18:48 44.134673 -123.217210 0 378ft 9kts
11-Jul-20 18:49 44.135303 -123.217834 272 378ft 0kts
11-Jul-20 18:50 44.135307 -123.217909 273 378ft 2kts
11-Jul-20 18:51 44.131275 -123.219120 181 378ft 69kts
11-Jul-20 18:52 44.108714 -123.217844 179 1001ft 83kts
11-Jul-20 18:53 44.089904 -123.215930 236 1753ft 60kts
11-Jul-20 18:54 44.102807 -123.228193 348 2383ft 76kts
11-Jul-20 18:55 44.123139 -123.231904 341 2989ft 73kts
11-Jul-20 18:56 44.143548 -123.235746 343 3531ft 75kts
11-Jul-20 18:57 44.164238 -123.238791 345 4028ft 77kts
11-Jul-20 18:58 44.185393 -123.241920 344 4486ft 77kts
11-Jul-20 18:59 44.206657 -123.245237 343 4943ft 75kts
11-Jul-20 19:00 44.228216 -123.248567 341 5367ft 78kts
11-Jul-20 19:01 44.249925 -123.252071 342 5754ft 80kts
11-Jul-20 19:02 44.272894 -123.255891 348 6009ft 94kts
11-Jul-20 19:03 44.302819 -123.260626 347 6010ft 118kts
11-Jul-20 19:04 44.336096 -123.265870 347 6008ft 121kts
11-Jul-20 19:05 44.369568 -123.271497 345 6012ft 121kts
11-Jul-20 19:06 44.402923 -123.277414 345 6012ft 121kts
11-Jul-20 19:07 44.436433 -123.283125 346 6015ft 121kts
11-Jul-20 19:08 44.468994 -123.288596 344 6015ft 112kts
11-Jul-20 19:09 44.499917 -123.292319 1 6017ft 114kts
11-Jul-20 19:10 44.530932 -123.282453 4 6016ft 113kts
11-Jul-20 19:11 44.561848 -123.271322 7 6023ft 118kts
11-Jul-20 19:12 44.594496 -123.259113 8 6019ft 121kts
11-Jul-20 19:13 44.627056 -123.247175 7 6019ft 121kts
11-Jul-20 19:14 44.659748 -123.235095 8 6015ft 121kts
11-Jul-20 19:15 44.692588 -123.223079 7 6016ft 122kts
11-Jul-20 19:16 44.725394 -123.211000 7 6009ft 121kts
11-Jul-20 19:17 44.758163 -123.198966 8 6011ft 122kts
11-Jul-20 19:18 44.791056 -123.186854 7 6005ft 121kts
11-Jul-20 19:19 44.823725 -123.174907 5 6012ft 122kts
11-Jul-20 19:20 44.856739 -123.162734 7 6008ft 122kts
11-Jul-20 19:21 44.889621 -123.150627 6 6007ft 121kts
11-Jul-20 19:22 44.922516 -123.138472 6 6006ft 122kts
11-Jul-20 19:23 44.955481 -123.126397 6 6009ft 122kts
11-Jul-20 19:24 44.988402 -123.114437 6 6005ft 122kts
11-Jul-20 19:25 45.021456 -123.102114 5 6001ft 122kts
11-Jul-20 19:26 45.054446 -123.089898 5 6001ft 122kts
11-Jul-20 19:27 45.079043 -123.080757 6 5998ft 123kts
11-Jul-20 19:28 45.112238 -123.068385 6 5994ft 122kts
11-Jul-20 19:29 45.145297 -123.056064 7 5991ft 122kts
11-Jul-20 19:30 45.178067 -123.043430 19 5986ft 126kts
11-Jul-20 19:31 45.195375 -122.997655 64 5990ft 134kts
11-Jul-20 19:32 45.209824 -122.948524 65 5992ft 135kts
11-Jul-20 19:33 45.224247 -122.899521 64 5988ft 133kts
11-Jul-20 19:34 45.238329 -122.851772 64 5996ft 130kts
11-Jul-20 19:35 45.252420 -122.804179 65 5999ft 132kts
11-Jul-20 19:36 45.266587 -122.755608 64 6001ft 134kts
11-Jul-20 19:37 45.280819 -122.707162 63 6000ft 132kts
11-Jul-20 19:38 45.294929 -122.658875 64 6001ft 131kts
11-Jul-20 19:39 45.309047 -122.610486 65 6001ft 132kts
11-Jul-20 19:40 45.323253 -122.561766 65 6002ft 134kts
11-Jul-20 19:41 45.337500 -122.512709 63 6002ft 134kts
11-Jul-20 19:42 45.351597 -122.463362 64 5999ft 133kts
11-Jul-20 19:43 45.365591 -122.414427 64 5554ft 128kts
11-Jul-20 19:44 45.378803 -122.368541 64 5062ft 124kts
11-Jul-20 19:45 45.391813 -122.323289 65 4567ft 123kts
11-Jul-20 19:46 45.404951 -122.278364 64 4074ft 122kts
11-Jul-20 19:47 45.416935 -122.237053 64 3989ft 107kts
11-Jul-20 19:48 45.434384 -122.209047 328 4003ft 91kts
11-Jul-20 19:49 45.449856 -122.235274 299 4006ft 88kts
11-Jul-20 19:50 45.464442 -122.266510 297 3998ft 98kts
11-Jul-20 19:51 45.478657 -122.300233 296 3997ft 99kts
11-Jul-20 19:52 45.492716 -122.334860 295 3693ft 95kts
11-Jul-20 19:53 45.505375 -122.367188 295 3232ft 93kts
11-Jul-20 19:54 45.518272 -122.399966 295 2732ft 96kts
11-Jul-20 19:55 45.531106 -122.432628 297 2207ft 90kts
11-Jul-20 19:57 45.542984 -122.462543 299 1729ft 83kts
11-Jul-20 19:58 45.554497 -122.491468 301 1275ft 84kts
11-Jul-20 19:59 45.565283 -122.520244 301 827ft 78kts
11-Jul-20 20:00 45.574839 -122.545514 300 450ft 67kts
11-Jul-20 20:01 45.585010 -122.570378 300 40ft 67kts
11-Jul-20 20:02 45.589010 -122.581799 231 27ft 5kts
11-Jul-20 20:03 45.588551 -122.582275 210 27ft 0kts
11-Jul-20 20:04 45.587757 -122.580768 116 27ft 22kts
11-Jul-20 20:05 45.586174 -122.579168 296 27ft 4kts
11-Jul-20 20:06 45.585560 -122.578712 213 27ft 0kts

Navigation Log

Ident Type
Flight plan parsing failed, navigation log unavailable